Saint Marys, Ohio
Current Conditions -  °F | °C
As of 4:13 AM on Monday 24 Nov 2014 (Local Time) from KAXV Reporting Station
Overcast Overcast  
Wind Chill: 57°   Ceiling: 1500
Heat Index: 57°   Visibility: 10mi
Dew Point: 55°   Wind: 18mph
Humidity: 94%   Direction: 210°SSW
Pressure: 29.24"   Gusts: 26mph
Location:  40.54°N, 84.39°W
Report Text: KAXV 240913Z AUTO 21016G23KT 10SM BKN015 OVC020 14/13 A2924 RMK AO2
Loading
Personal Weather Stations






























Interactive Weather Map New forecast layout! Learn more

10-Day Weather Forecast

Advertisements
Track Severe Weather on mobile